Main page
METAR-TAF:

METAR-TAF

Airports :

Al Qaisumah/Hafr Al Batin Airport

Qaisumah, Saudi Arabia

latitude: 28-19N, longitude: 046-07E, elevation: 358 m

Current weather observation

The report was made 18 minutes ago, at 14:00 UTC
Wind 8 kt from the Northwest
Temperature 43°C
Humidity 13%
Pressure 1001 hPa
Visibility 10 km or more
no clouds below 1500 m and no cumulonimbus

METAR: OEPA 181400Z 32008KT CAVOK 43/09 Q1001 NOSIG

Time: 17:18 (14:18 UTC)

Forecast

The report was made 3 hours and 18 minutes ago, at 11:00 UTC
Forecast valid from 18 at 12 UTC to 19 at 18 UTC
Wind 6 kt from the North/Northwest with gusts up to 16 kt
Visibility: 8000 m
Clear sky
Temporary
from 18 at 12 UTC to 18 at 20 UTC
Visibility: 5000 m
widespread dust, Blowing dust

TAF: OEPA 181100Z 1812/1918 33006G16KT 8000 SKC TEMPO 1812/1820 5000 DU BLDU

Weather observations and forecasts of more than 4000 airports (METAR and TAF reports).

The available stations are represented by yellow and red dots on the map.

Hover mouse over dot to see the name of the station.

Then click to see weather observations and forecasts.

To change the map : click on the green buttons with a black cross to zoom in, on the green button with a dash to zoom out, or on the green arrows for adjacent maps.


METAR-TAF: